Time;durP1;ratioP1;P1;durP2;ratioP2;P2;SDS_P1;SDS_P2;PMS_P1;PMS_P2;Temp;Humidity;BMP_temperature;BMP_pressure;BME280_temperature;BME280_humidity;BME280_pressure;Samples;Min_cycle;Max_cycle;Signal;HPM_P1;HPM_P2
2022/06/28 00:01:18;;;;;;;5.03;3.05;;;;;;;24.21;77.63;98194.91;1683942;84;28093;-83
2022/06/28 00:03:47;;;;;;;4.30;3.20;;;;;;;24.22;77.61;98185.04;1643051;86;28110;-83
2022/06/28 00:06:14;;;;;;;4.05;3.22;;;;;;;24.17;77.55;98177.55;1670056;85;28088;-83
2022/06/28 00:08:41;;;;;;;5.53;3.95;;;;;;;24.16;77.44;98179.94;1638401;87;28140;-83
2022/06/28 00:11:11;;;;;;;3.58;3.12;;;;;;;24.16;77.43;98181.28;1675494;85;28090;-83
2022/06/28 00:13:37;;;;;;;3.90;3.10;;;;;;;24.15;77.31;98183.63;1685003;84;28097;-83
2022/06/28 00:16:06;;;;;;;5.42;3.60;;;;;;;24.15;77.16;98178.28;1683297;84;28066;-83
2022/06/28 00:18:37;;;;;;;5.65;3.22;;;;;;;24.17;77.06;98183.77;1681857;84;28129;-83
2022/06/28 00:21:08;;;;;;;3.62;3.17;;;;;;;24.20;77.00;98183.89;1681777;84;28132;-83
2022/06/28 00:23:38;;;;;;;3.02;2.70;;;;;;;24.22;76.86;98185.04;1676820;84;28047;-83
2022/06/28 00:26:07;;;;;;;6.22;3.47;;;;;;;24.22;76.77;98179.69;1684848;84;28062;-83
2022/06/28 00:28:33;;;;;;;6.00;3.65;;;;;;;24.20;76.62;98181.73;1685622;84;28171;-84
2022/06/28 00:30:59;;;;;;;4.85;3.25;;;;;;;24.23;76.33;98188.83;1684663;84;28103;-83
2022/06/28 00:33:25;;;;;;;4.22;2.87;;;;;;;24.28;76.28;98179.69;1684291;84;28082;-83
2022/06/28 00:35:52;;;;;;;4.50;3.67;;;;;;;24.32;76.19;98193.00;1638870;87;28132;-87
2022/06/28 00:38:20;;;;;;;3.40;3.10;;;;;;;24.32;76.04;98193.51;1638688;86;28018;-87
2022/06/28 00:40:54;;;;;;;3.33;3.02;;;;;;;24.33;75.82;98194.63;1638281;86;28156;-88
2022/06/28 00:43:22;;;;;;;4.33;3.40;;;;;;;24.33;75.71;98199.97;1675710;85;28114;-88
2022/06/28 00:45:51;;;;;;;5.45;3.37;;;;;;;24.33;75.70;98201.31;1683544;84;28074;-88
2022/06/28 00:48:18;;;;;;;6.65;3.10;;;;;;;24.28;75.55;98203.77;1682652;84;28102;-85
2022/06/28 00:50:47;;;;;;;4.40;3.45;;;;;;;24.31;75.51;98203.89;1673358;85;28110;-84
2022/06/28 00:53:18;;;;;;;4.00;3.30;;;;;;;24.32;75.36;98215.73;1673868;85;28074;-85
2022/06/28 00:55:48;;;;;;;3.65;3.35;;;;;;;24.33;75.26;98225.38;1674830;85;28078;-85
2022/06/28 00:58:16;;;;;;;5.72;3.47;;;;;;;24.34;75.23;98227.04;1673157;85;28083;-83
2022/06/28 01:00:45;;;;;;;3.87;3.22;;;;;;;24.31;75.02;98223.44;1674742;84;28098;-83
2022/06/28 01:03:14;;;;;;;4.30;3.50;;;;;;;24.29;74.87;98227.33;1691868;84;28076;-84
2022/06/28 01:05:44;;;;;;;4.00;3.20;;;;;;;24.25;74.80;98224.23;1693017;84;28100;-84
2022/06/28 01:08:11;;;;;;;4.10;3.40;;;;;;;24.21;74.78;98228.84;1692067;84;28086;-89
2022/06/28 01:10:38;;;;;;;3.72;3.40;;;;;;;24.19;74.73;98225.02;1692107;84;28015;-85
2022/06/28 01:13:05;;;;;;;6.17;3.52;;;;;;;24.22;74.82;98233.97;1698372;84;28126;-85
2022/06/28 01:15:32;;;;;;;4.95;3.67;;;;;;;24.20;74.85;98233.37;1699016;84;28239;-84
2022/06/28 01:18:01;;;;;;;3.47;3.17;;;;;;;24.15;74.85;98240.62;1698468;84;28176;-89
2022/06/28 01:20:27;;;;;;;5.80;3.67;;;;;;;24.11;74.99;98241.22;1659342;85;28183;-89
2022/06/28 01:22:54;;;;;;;5.40;3.50;;;;;;;24.07;75.16;98239.94;1662401;86;28074;-89
2022/06/28 01:25:24;;;;;;;3.47;3.17;;;;;;;24.06;75.40;98241.78;1664763;85;28009;-89
2022/06/28 01:27:52;;;;;;;4.40;3.50;;;;;;;24.06;75.51;98243.62;1665062;86;28074;-89
2022/06/28 01:30:18;;;;;;;4.05;3.65;;;;;;;24.05;75.59;98243.34;1662767;86;28022;-89
2022/06/28 01:32:45;;;;;;;4.95;3.55;;;;;;;24.05;75.63;98246.02;1661650;86;28243;-89
2022/06/28 01:35:11;;;;;;;3.60;3.25;;;;;;;24.05;75.61;98245.50;1665075;86;27996;-89
2022/06/28 01:37:37;;;;;;;5.25;3.55;;;;;;;24.05;75.62;98247.35;1663599;86;28026;-89
2022/06/28 01:40:04;;;;;;;4.40;3.40;;;;;;;24.01;75.54;98247.41;1663177;86;28085;-89
2022/06/28 01:42:31;;;;;;;4.17;3.50;;;;;;;23.99;75.69;98242.78;1663435;86;28079;-89
2022/06/28 01:44:59;;;;;;;3.65;3.27;;;;;;;23.93;75.73;98246.24;1661842;86;28085;-88
2022/06/28 01:47:27;;;;;;;4.65;3.85;;;;;;;23.87;75.93;98243.02;1661708;86;28079;-89
2022/06/28 01:49:55;;;;;;;4.55;3.67;;;;;;;23.83;76.02;98260.47;1662100;86;28070;-89
2022/06/28 01:52:22;;;;;;;7.03;3.98;;;;;;;23.76;76.15;98253.23;1661727;86;28026;-89
2022/06/28 01:54:48;;;;;;;5.45;3.58;;;;;;;23.75;76.30;98256.09;1663559;85;28070;-89
2022/06/28 01:57:15;;;;;;;5.08;3.08;;;;;;;23.73;76.54;98257.61;1663228;86;28072;-89
2022/06/28 01:59:43;;;;;;;5.50;4.17;;;;;;;23.72;76.65;98259.16;1660947;86;28182;-89
2022/06/28 02:02:09;;;;;;;5.55;3.47;;;;;;;23.69;76.89;98259.03;1648449;86;28040;-89
2022/06/28 02:04:35;;;;;;;4.53;3.37;;;;;;;23.66;77.10;98249.25;1631172;87;28194;-89
2022/06/28 02:07:02;;;;;;;4.25;3.25;;;;;;;23.58;77.14;98259.56;1607110;87;28091;-86
2022/06/28 02:09:28;;;;;;;3.70;3.20;;;;;;;23.52;77.30;98250.98;1610563;87;28186;-86
2022/06/28 02:11:54;;;;;;;3.60;3.30;;;;;;;23.48;77.45;98252.90;1633355;87;28173;-86
2022/06/28 02:14:21;;;;;;;3.58;3.17;;;;;;;23.38;77.83;98253.71;1631154;87;28120;-86
2022/06/28 02:16:47;;;;;;;3.58;3.27;;;;;;;23.36;78.14;98253.39;1631176;87;28117;-89
2022/06/28 02:19:13;;;;;;;4.85;3.87;;;;;;;23.37;78.41;98256.89;1630652;87;28265;-88
2022/06/28 02:21:41;;;;;;;4.92;3.90;;;;;;;23.38;78.62;98254.54;1629603;87;28109;-89
2022/06/28 02:24:09;;;;;;;4.95;3.70;;;;;;;23.40;78.90;98255.69;1632822;87;28146;-89
2022/06/28 02:26:36;;;;;;;5.05;3.52;;;;;;;23.39;79.15;98257.53;1630867;87;28074;-89
2022/06/28 02:29:04;;;;;;;4.20;3.42;;;;;;;23.36;79.50;98259.23;1631054;87;28168;-88
2022/06/28 02:31:31;;;;;;;7.80;3.58;;;;;;;23.31;79.82;98261.16;1628494;87;28072;-84
2022/06/28 02:33:58;;;;;;;4.15;3.40;;;;;;;23.27;80.02;98259.06;1633223;87;28027;-84
2022/06/28 02:41:41;;;;;;;4.85;3.17;;;;;;;23.15;80.59;98265.42;1631459;87;28147;-84
2022/06/28 02:44:08;;;;;;;4.22;3.83;;;;;;;23.11;80.68;98263.33;1631518;87;28049;-84
2022/06/28 02:46:34;;;;;;;4.03;3.42;;;;;;;23.07;80.79;98264.73;1631128;87;28194;-85
2022/06/28 02:49:00;;;;;;;3.70;3.40;;;;;;;23.06;80.97;98268.41;1631651;87;28114;-84
2022/06/28 02:51:26;;;;;;;3.80;3.40;;;;;;;23.04;81.15;98268.59;1633616;87;28041;-84
2022/06/28 02:53:53;;;;;;;6.92;4.62;;;;;;;23.04;81.37;98269.10;1632023;87;28286;-84
2022/06/28 02:56:20;;;;;;;3.52;3.08;;;;;;;23.03;81.62;98265.60;1631862;87;28183;-84
2022/06/28 02:58:46;;;;;;;4.55;3.47;;;;;;;22.94;81.92;98267.58;1632735;87;28119;-83
2022/06/28 03:01:15;;;;;;;4.62;3.47;;;;;;;22.90;82.37;98265.48;1633381;87;28143;-84
2022/06/28 03:03:41;;;;;;;6.75;3.58;;;;;;;22.68;82.67;98267.77;1614865;88;28161;-85
2022/06/28 03:06:14;;;;;;;3.80;3.40;;;;;;;22.49;83.13;98269.17;1612570;88;28122;-86
2022/06/28 03:08:40;;;;;;;3.85;3.45;;;;;;;22.34;83.73;98261.20;1615162;88;28098;-85
2022/06/28 03:11:06;;;;;;;5.65;3.30;;;;;;;22.39;84.49;98264.13;1614946;88;28113;-85
2022/06/28 03:13:32;;;;;;;6.00;3.50;;;;;;;22.36;85.27;98254.35;1594482;88;28110;-84
2022/06/28 03:15:58;;;;;;;6.22;3.50;;;;;;;22.38;85.97;98257.64;1613822;88;28102;-84
2022/06/28 03:18:25;;;;;;;4.05;3.65;;;;;;;22.47;86.71;98259.21;1614850;88;28081;-84
2022/06/28 03:20:51;;;;;;;5.37;3.67;;;;;;;22.51;87.25;98260.48;1615130;88;28047;-84
2022/06/28 03:23:17;;;;;;;5.42;3.52;;;;;;;22.59;87.89;98263.03;1615272;88;28097;-85
2022/06/28 03:25:44;;;;;;;5.60;3.42;;;;;;;22.60;88.39;98262.52;1616346;88;28141;-85
2022/06/28 03:28:10;;;;;;;9.53;4.15;;;;;;;22.76;88.95;98265.83;1615694;88;28109;-83
2022/06/28 03:30:37;;;;;;;5.37;3.77;;;;;;;22.89;89.24;98265.98;1616703;88;28484;-84
2022/06/28 03:33:04;;;;;;;5.05;3.62;;;;;;;23.01;89.52;98268.16;1613733;88;28105;-84
2022/06/28 03:35:30;;;;;;;5.40;3.58;;;;;;;23.04;89.76;98262.42;1614036;88;28093;-84
2022/06/28 03:37:57;;;;;;;5.22;3.90;;;;;;;23.17;90.24;98262.06;1613080;88;28066;-84
2022/06/28 03:40:23;;;;;;;4.70;3.33;;;;;;;23.35;90.63;98265.09;1614148;88;28109;-85
2022/06/28 03:42:50;;;;;;;4.22;3.60;;;;;;;23.50;90.96;98262.89;1615131;88;28097;-85
2022/06/28 03:45:16;;;;;;;4.65;3.98;;;;;;;23.61;91.08;98263.70;1613695;88;28115;-84
2022/06/28 03:47:44;;;;;;;3.60;3.30;;;;;;;23.74;91.27;98257.94;1613318;88;28201;-85
2022/06/28 03:50:13;;;;;;;5.17;3.75;;;;;;;23.83;91.19;98265.81;1585550;88;28079;-89
2022/06/28 03:52:40;;;;;;;4.87;3.65;;;;;;;23.89;91.32;98269.05;1614650;88;28101;-89
2022/06/28 03:55:07;;;;;;;3.85;3.45;;;;;;;24.05;91.59;98260.72;1615460;88;28082;-89
2022/06/28 03:57:33;;;;;;;4.55;3.50;;;;;;;24.24;91.70;98265.88;1613977;88;28195;-88
2022/06/28 04:00:01;;;;;;;4.05;3.47;;;;;;;24.39;91.66;98270.06;1615398;88;28116;-89
2022/06/28 04:02:27;;;;;;;5.53;3.12;;;;;;;24.45;91.24;98275.97;1620816;85;28024;-88
2022/06/28 04:04:53;;;;;;;5.37;3.55;;;;;;;24.46;90.60;98274.12;1632106;86;28152;-88
2022/06/28 04:07:26;;;;;;;4.08;3.12;;;;;;;24.47;90.23;98277.11;1632522;87;28091;-88
2022/06/28 04:09:59;;;;;;;5.20;3.37;;;;;;;24.41;89.86;98280.07;1632764;87;28071;-89
2022/06/28 04:12:25;;;;;;;4.12;3.58;;;;;;;24.42;89.69;98282.23;1632888;87;28092;-88
2022/06/28 04:14:51;;;;;;;5.62;4.00;;;;;;;24.40;89.33;98286.44;1633389;87;28004;-88
2022/06/28 04:17:17;;;;;;;5.55;3.20;;;;;;;24.40;89.06;98285.10;1633764;87;28120;-88
2022/06/28 04:19:44;;;;;;;3.85;3.08;;;;;;;24.49;89.06;98293.27;1633732;87;28142;-84
2022/06/28 04:22:10;;;;;;;4.33;3.50;;;;;;;24.65;89.24;98284.61;1633474;87;28118;-84
2022/06/28 04:24:36;;;;;;;3.40;3.10;;;;;;;24.78;89.23;98296.17;1634712;87;28091;-84
2022/06/28 04:27:03;;;;;;;5.12;3.85;;;;;;;24.85;88.94;98289.51;1633855;87;28562;-84
2022/06/28 04:29:29;;;;;;;3.37;3.08;;;;;;;24.91;88.69;98282.05;1635024;87;28032;-84
2022/06/28 04:31:55;;;;;;;4.12;3.30;;;;;;;24.89;88.73;98280.07;1631650;87;28106;-84
2022/06/28 04:34:22;;;;;;;6.50;3.33;;;;;;;24.99;88.78;98279.99;1633423;87;28000;-85
2022/06/28 04:36:48;;;;;;;6.35;3.75;;;;;;;25.09;88.73;98282.30;1631275;87;28173;-84
2022/06/28 04:39:15;;;;;;;3.22;2.80;;;;;;;25.22;88.99;98274.27;1631633;87;28064;-85
2022/06/28 04:41:42;;;;;;;5.20;3.40;;;;;;;25.46;89.25;98272.03;1631043;87;28151;-85
2022/06/28 04:44:09;;;;;;;8.60;3.52;;;;;;;25.67;89.37;98273.20;1630385;87;28156;-85
2022/06/28 04:46:35;;;;;;;5.20;3.37;;;;;;;25.87;89.59;98271.31;1632846;87;28088;-85
2022/06/28 04:49:01;;;;;;;3.80;3.40;;;;;;;26.04;89.50;98269.85;1628348;87;28233;-85
2022/06/28 04:51:28;;;;;;;3.85;3.33;;;;;;;26.15;89.20;98263.02;1631028;87;28113;-89
2022/06/28 04:53:54;;;;;;;4.92;3.00;;;;;;;26.21;88.90;98254.95;1629113;87;28116;-86
2022/06/28 04:56:21;;;;;;;4.55;2.87;;;;;;;26.18;87.78;98254.02;1632031;87;28162;-86
2022/06/28 04:58:49;;;;;;;5.05;3.20;;;;;;;26.17;87.06;98253.73;1634129;87;28076;-85
2022/06/28 05:01:15;;;;;;;4.42;3.40;;;;;;;26.20;86.79;98250.63;1635276;86;29214;-89
2022/06/28 05:03:43;;;;;;;3.37;3.08;;;;;;;26.26;86.34;98246.81;1653062;86;28158;-89
2022/06/28 05:06:11;;;;;;;4.15;3.02;;;;;;;26.32;86.13;98246.80;1664619;86;28043;-89
2022/06/28 05:08:37;;;;;;;4.87;3.20;;;;;;;26.39;86.12;98241.41;1664805;85;28095;-84
2022/06/28 05:11:07;;;;;;;4.50;3.10;;;;;;;26.42;85.74;98235.61;1665181;86;28152;-88
2022/06/28 05:13:34;;;;;;;3.33;2.60;;;;;;;26.41;85.03;98240.15;1664346;86;42365;-85
2022/06/28 05:16:04;;;;;;;3.95;3.15;;;;;;;26.40;84.84;98235.02;1665114;86;28006;-86
2022/06/28 05:18:31;;;;;;;5.05;2.70;;;;;;;26.42;84.47;98236.95;1665137;86;28058;-86
2022/06/28 05:20:58;;;;;;;4.50;2.85;;;;;;;26.41;83.76;98235.30;1665044;86;28054;-89
2022/06/28 05:23:24;;;;;;;3.33;2.90;;;;;;;26.44;83.25;98234.89;1661030;86;28083;-89
2022/06/28 05:25:52;;;;;;;4.28;3.08;;;;;;;26.49;83.11;98235.08;1665159;86;28084;-89
2022/06/28 05:28:18;;;;;;;5.15;2.98;;;;;;;26.57;83.27;98234.81;1660675;86;28194;-89
2022/06/28 05:30:50;;;;;;;4.75;3.00;;;;;;;26.66;83.23;98237.58;1660137;85;28132;-89
2022/06/28 05:33:23;;;;;;;3.37;2.92;;;;;;;26.64;82.64;98238.30;1662796;85;28080;-89
2022/06/28 05:35:50;;;;;;;3.55;2.85;;;;;;;26.68;82.68;98236.83;1665019;86;28089;-90
2022/06/28 05:38:16;;;;;;;5.83;3.17;;;;;;;26.79;82.48;98238.83;1665099;86;28077;-91
2022/06/28 05:40:42;;;;;;;4.97;3.05;;;;;;;26.93;82.50;98245.83;1662920;85;28274;-86
2022/06/28 05:43:08;;;;;;;3.58;2.90;;;;;;;27.05;82.46;98241.94;1662709;86;28015;-89
2022/06/28 05:45:34;;;;;;;3.08;2.83;;;;;;;27.17;82.71;98243.38;1661773;86;28086;-84
2022/06/28 05:48:00;;;;;;;6.92;3.80;;;;;;;27.25;82.65;98249.84;1663066;86;28094;-84
2022/06/28 05:50:27;;;;;;;7.40;4.03;;;;;;;27.34;82.55;98251.22;1663114;86;28145;-83
2022/06/28 05:52:55;;;;;;;6.33;4.33;;;;;;;27.41;82.22;98243.41;1663125;85;28060;-83
2022/06/28 05:55:22;;;;;;;8.35;5.42;;;;;;;27.51;82.14;98248.33;1665163;86;28102;-89
2022/06/28 05:57:48;;;;;;;11.03;5.33;;;;;;;27.56;81.76;98243.11;1664358;86;28109;-84
2022/06/28 06:00:15;;;;;;;8.03;4.58;;;;;;;27.59;81.61;98242.69;1664969;86;28168;-89
2022/06/28 06:02:42;;;;;;;7.72;5.03;;;;;;;27.62;81.38;98243.58;1655736;86;28130;-85
2022/06/28 06:05:11;;;;;;;7.95;4.55;;;;;;;27.65;81.14;98247.70;1630712;86;28093;-83
2022/06/28 06:07:37;;;;;;;7.03;3.80;;;;;;;27.68;80.90;98253.97;1630018;87;28064;-85
2022/06/28 06:10:04;;;;;;;8.25;3.80;;;;;;;27.70;80.53;98263.48;1628586;87;28112;-84
2022/06/28 06:12:30;;;;;;;6.78;3.92;;;;;;;27.70;80.31;98264.00;1613882;87;28106;-84
2022/06/28 06:14:58;;;;;;;6.70;3.52;;;;;;;27.64;79.96;98268.39;1631055;87;28081;-84
2022/06/28 06:17:25;;;;;;;6.33;3.77;;;;;;;27.60;79.74;98280.64;1631552;87;28156;-85
2022/06/28 06:19:51;;;;;;;5.92;3.60;;;;;;;27.53;79.60;98285.23;1630692;87;28081;-85
2022/06/28 06:22:17;;;;;;;6.55;2.87;;;;;;;27.44;79.21;98279.77;1631554;87;28149;-83
2022/06/28 06:24:46;;;;;;;5.92;3.10;;;;;;;27.39;79.10;98277.75;1631459;87;28261;-85
2022/06/28 06:27:14;;;;;;;5.95;3.33;;;;;;;27.33;78.95;98279.16;1629492;87;28163;-85
2022/06/28 06:29:41;;;;;;;5.65;3.25;;;;;;;27.28;79.04;98284.34;1631452;87;28197;-86
2022/06/28 06:32:07;;;;;;;6.58;3.40;;;;;;;27.31;79.13;98286.09;1631567;87;28155;-84
2022/06/28 06:34:33;;;;;;;7.22;3.33;;;;;;;27.33;79.13;98293.39;1630056;87;28098;-84
2022/06/28 06:36:59;;;;;;;7.40;4.10;;;;;;;27.35;79.25;98300.73;1632835;87;28133;-89
2022/06/28 06:39:25;;;;;;;8.63;3.65;;;;;;;27.29;79.01;98312.86;1631128;87;28034;-84
2022/06/28 06:41:52;;;;;;;8.93;4.22;;;;;;;27.22;78.91;98314.24;1629217;86;28157;-84
2022/06/28 06:44:19;;;;;;;6.72;4.03;;;;;;;27.17;78.95;98326.16;1630340;87;28099;-84
2022/06/28 06:46:45;;;;;;;7.15;3.80;;;;;;;27.17;79.15;98322.13;1633178;87;28118;-84
2022/06/28 06:49:14;;;;;;;5.75;3.95;;;;;;;27.18;79.36;98329.67;1629955;87;28174;-84
2022/06/28 06:51:43;;;;;;;8.80;3.92;;;;;;;27.17;79.70;98326.16;1674901;84;28067;-83
2022/06/28 06:54:09;;;;;;;7.50;3.92;;;;;;;27.13;80.10;98325.47;1680970;84;28162;-83
2022/06/28 06:56:35;;;;;;;9.30;4.22;;;;;;;27.04;80.25;98322.22;1682912;84;28140;-84
2022/06/28 06:59:02;;;;;;;6.47;3.60;;;;;;;26.97;80.66;98314.19;1685600;84;28059;-89
2022/06/28 07:01:30;;;;;;;5.50;3.35;;;;;;;26.95;80.79;98318.11;1681237;84;28152;-86
2022/06/28 07:03:56;;;;;;;3.80;3.27;;;;;;;27.00;81.15;98315.09;1695662;82;27998;-84
2022/06/28 07:06:22;;;;;;;5.30;3.70;;;;;;;27.06;80.97;98317.44;1707205;83;28209;-84
2022/06/28 07:08:48;;;;;;;6.62;3.37;;;;;;;27.04;80.30;98313.64;1706995;82;28142;-84
2022/06/28 07:11:14;;;;;;;5.45;3.85;;;;;;;27.07;80.11;98312.38;1702440;82;28104;-84
2022/06/28 07:13:40;;;;;;;5.15;3.62;;;;;;;27.11;80.07;98315.47;1701682;83;28185;-84
2022/06/28 07:16:07;;;;;;;6.22;4.03;;;;;;;27.16;80.32;98312.96;1676788;84;28138;-89
2022/06/28 07:18:33;;;;;;;7.28;4.37;;;;;;;27.21;80.35;98326.05;1676293;84;28150;-89
2022/06/28 07:21:00;;;;;;;8.38;5.17;;;;;;;27.21;80.22;98331.95;1639791;87;28088;-89
2022/06/28 07:23:27;;;;;;;9.35;4.70;;;;;;;27.19;80.29;98332.67;1648882;85;28489;-84
2022/06/28 07:25:55;;;;;;;11.73;6.00;;;;;;;27.17;80.58;98336.08;1700824;83;28189;-85
2022/06/28 07:28:21;;;;;;;9.33;6.37;;;;;;;27.07;80.64;98340.58;1699707;83;28110;-83
2022/06/28 07:30:48;;;;;;;9.70;6.30;;;;;;;27.00;81.04;98341.16;1701058;84;28124;-90
2022/06/28 07:33:13;;;;;;;12.10;6.55;;;;;;;26.96;81.38;98361.40;1701775;83;28191;-84
2022/06/28 07:35:40;;;;;;;10.13;6.40;;;;;;;26.90;81.73;98375.67;1673977;84;27988;-85
2022/06/28 07:38:06;;;;;;;8.40;6.08;;;;;;;26.85;82.55;98386.20;1674689;84;28188;-85
2022/06/28 07:40:33;;;;;;;10.30;5.62;;;;;;;26.73;82.80;98404.83;1692232;84;28094;-85
2022/06/28 07:43:00;;;;;;;8.95;6.00;;;;;;;26.65;83.40;98411.27;1690588;84;28015;-84
2022/06/28 07:45:26;;;;;;;10.68;6.20;;;;;;;26.56;84.14;98415.73;1688212;83;28120;-85
2022/06/28 07:47:53;;;;;;;10.63;6.08;;;;;;;26.46;84.84;98424.70;1692920;84;28090;-83
2022/06/28 07:53:05;;;;;;;10.78;6.15;;;;;;;26.28;86.14;98439.29;1639903;87;28146;-84
2022/06/28 07:55:32;;;;;;;8.35;6.22;;;;;;;26.20;86.94;98432.23;1668256;84;28013;-86
2022/06/28 07:58:00;;;;;;;7.85;6.05;;;;;;;26.03;87.42;98429.13;1669954;85;28059;-86
2022/06/28 08:00:28;;;;;;;8.83;5.62;;;;;;;25.89;87.94;98433.36;1702337;84;28085;-85
2022/06/28 08:02:56;;;;;;;10.32;6.00;;;;;;;25.76;88.56;98438.17;1674184;84;28120;-84
2022/06/28 08:05:22;;;;;;;8.00;5.62;;;;;;;25.64;89.19;98441.96;1687774;83;28204;-84
2022/06/28 08:07:50;;;;;;;9.58;6.20;;;;;;;25.56;89.63;98435.97;1682790;84;28203;-85
2022/06/28 08:10:18;;;;;;;10.38;6.70;;;;;;;25.51;90.37;98433.88;1682915;84;28098;-85
2022/06/28 08:12:45;;;;;;;11.12;7.15;;;;;;;25.38;91.30;98439.17;1682990;85;28133;-84
2022/06/28 08:15:12;;;;;;;16.27;9.00;;;;;;;25.25;92.25;98448.02;1684350;84;28134;-86
2022/06/28 08:17:41;;;;;;;11.30;7.30;;;;;;;25.15;93.23;98453.43;1672429;85;28054;-86
2022/06/28 08:20:09;;;;;;;8.13;6.72;;;;;;;25.04;94.33;98446.76;1681356;84;28043;-86
2022/06/28 08:22:35;;;;;;;11.78;6.17;;;;;;;24.97;95.42;98447.26;1680831;84;28173;-90
2022/06/28 08:25:04;;;;;;;9.93;6.15;;;;;;;24.87;96.40;98462.32;1684025;85;28081;-90
2022/06/28 08:27:30;;;;;;;15.80;7.67;;;;;;;24.82;97.59;98459.38;1681993;84;28172;-85
2022/06/28 08:30:04;;;;;;;15.83;7.80;;;;;;;24.80;98.58;98459.27;1683223;84;28156;-86
2022/06/28 08:32:30;;;;;;;10.85;6.85;;;;;;;24.77;99.57;98458.31;1679123;84;28094;-85
2022/06/28 08:34:58;;;;;;;9.28;6.97;;;;;;;24.62;100.00;98450.41;1679373;84;28098;-86
2022/06/28 08:37:27;;;;;;;10.95;6.75;;;;;;;24.55;100.00;98451.69;1682015;85;28164;-90
2022/06/28 08:39:53;;;;;;;12.73;7.55;;;;;;;24.53;100.00;98459.11;1683267;84;28161;-86
2022/06/28 08:42:22;;;;;;;12.15;8.53;;;;;;;24.51;100.00;98464.33;1681703;84;28090;-86
2022/06/28 08:44:50;;;;;;;10.98;7.67;;;;;;;24.48;100.00;98476.26;1680835;84;28157;-90
2022/06/28 08:47:19;;;;;;;11.43;6.87;;;;;;;24.44;100.00;98484.84;1680391;85;28089;-86
2022/06/28 08:49:57;;;;;;;10.30;6.85;;;;;;;24.32;100.00;98478.39;1680886;84;28118;-86
2022/06/28 08:52:24;;;;;;;8.65;6.10;;;;;;;24.22;100.00;98481.91;1606137;88;28139;-85
2022/06/28 08:54:52;;;;;;;7.15;6.40;;;;;;;24.11;100.00;98497.39;1680417;84;28175;-86
2022/06/28 08:57:20;;;;;;;8.85;6.45;;;;;;;24.04;100.00;98502.38;1679671;84;28101;-89
2022/06/28 08:59:49;;;;;;;9.55;5.35;;;;;;;23.96;100.00;98503.82;1680441;84;28141;-86
2022/06/28 09:02:16;;;;;;;5.40;4.85;;;;;;;23.84;100.00;98501.35;1680436;84;28220;-85
2022/06/28 09:04:50;;;;;;;7.85;5.05;;;;;;;23.71;100.00;98497.52;1676428;84;28082;-86
2022/06/28 09:07:17;;;;;;;5.95;5.08;;;;;;;23.62;100.00;98497.28;1672806;85;28056;-89
2022/06/28 09:09:43;;;;;;;8.23;5.80;;;;;;;23.54;100.00;98508.10;1675996;84;28098;-89
2022/06/28 09:12:10;;;;;;;9.18;7.15;;;;;;;23.50;100.00;98504.66;1673073;85;28086;-89
2022/06/28 09:14:36;;;;;;;10.43;6.75;;;;;;;23.46;100.00;98502.84;1673005;85;28118;-89
2022/06/28 09:17:25;;;;;;;10.45;7.05;;;;;;;23.36;100.00;98515.14;1674793;85;28169;-86
2022/06/28 09:19:58;;;;;;;11.85;7.78;;;;;;;23.22;100.00;98533.85;1673104;84;28079;-87
2022/06/28 09:22:33;;;;;;;10.93;7.87;;;;;;;23.10;100.00;98541.49;1674301;84;28449;-87
2022/06/28 09:25:02;;;;;;;9.53;7.22;;;;;;;23.04;100.00;98544.06;1676552;85;28103;-88
2022/06/28 09:27:33;;;;;;;10.30;8.40;;;;;;;22.87;100.00;98544.73;1674636;85;28158;-88
2022/06/28 09:30:01;;;;;;;10.33;8.70;;;;;;;22.74;100.00;98552.05;1671965;85;28109;-87
2022/06/28 09:32:30;;;;;;;16.37;8.98;;;;;;;22.72;100.00;98558.56;1674860;85;28063;-87
2022/06/28 09:35:03;;;;;;;9.75;8.45;;;;;;;22.66;100.00;98565.42;1672494;85;28156;-90
2022/06/28 09:37:47;;;;;;;12.15;8.73;;;;;;;22.58;100.00;98570.84;1678531;84;28137;-89
2022/06/28 09:40:11;;;;;;;11.63;9.05;;;;;;;22.62;100.00;98573.97;1673543;85;28178;-86
2022/06/28 09:42:47;;;;;;;13.13;8.50;;;;;;;22.72;100.00;98566.06;1672937;85;28055;-86
2022/06/28 09:45:16;;;;;;;12.50;8.58;;;;;;;22.84;100.00;98563.29;1675386;84;28138;-90
2022/06/28 09:47:46;;;;;;;12.35;8.90;;;;;;;22.89;100.00;98559.57;1674335;85;28374;-90
2022/06/28 09:50:14;;;;;;;9.93;8.88;;;;;;;22.96;100.00;98550.84;1671998;85;28194;-87
2022/06/28 09:52:45;;;;;;;13.83;9.50;;;;;;;22.99;100.00;98548.62;1672148;85;28075;-86
2022/06/28 09:55:14;;;;;;;15.25;9.95;;;;;;;23.05;100.00;98553.73;1675979;84;28020;-90
2022/06/28 09:57:52;;;;;;;9.58;8.55;;;;;;;23.09;100.00;98554.52;1673920;85;28075;-86
2022/06/28 10:00:17;;;;;;;14.50;8.50;;;;;;;23.07;100.00;98557.89;1672959;83;28088;-87
2022/06/28 10:02:44;;;;;;;8.70;7.90;;;;;;;23.04;100.00;98561.41;1675874;85;28152;-90
2022/06/28 10:05:11;;;;;;;9.83;8.13;;;;;;;23.11;100.00;98563.18;1686065;84;28078;-87
2022/06/28 10:07:38;;;;;;;10.08;8.05;;;;;;;23.12;100.00;98569.35;1701241;84;28081;-86
2022/06/28 10:10:07;;;;;;;12.35;8.18;;;;;;;23.16;100.00;98574.64;1672328;85;28096;-86
2022/06/28 10:15:21;;;;;;;9.18;8.18;;;;;;;23.20;100.00;98589.27;1671735;85;28174;-90
2022/06/28 10:17:53;;;;;;;8.50;6.45;;;;;;;23.17;100.00;98591.82;1692775;84;28078;-87
2022/06/28 10:20:29;;;;;;;4.22;3.83;;;;;;;23.11;100.00;98595.72;1691938;84;27991;-87
2022/06/28 10:23:25;;;;;;;4.67;4.20;;;;;;;22.99;100.00;98602.01;1691068;84;28113;-86
2022/06/28 10:26:07;;;;;;;4.25;3.83;;;;;;;22.86;100.00;98601.28;1649862;85;28087;-86
2022/06/28 10:28:37;;;;;;;4.67;4.20;;;;;;;22.80;100.00;98598.00;1634242;87;28127;-86
2022/06/28 10:31:25;;;;;;;5.75;3.95;;;;;;;22.81;100.00;98603.67;1691660;84;28152;-86
2022/06/28 10:33:54;;;;;;;4.30;3.90;;;;;;;22.76;100.00;98603.38;1690859;84;28066;-86
2022/06/28 10:36:23;;;;;;;4.95;4.40;;;;;;;22.79;100.00;98605.70;1692219;84;28223;-86
2022/06/28 10:39:08;;;;;;;5.53;3.80;;;;;;;22.81;100.00;98607.67;1691360;84;28091;-87
2022/06/28 10:41:43;;;;;;;3.72;3.35;;;;;;;22.90;100.00;98605.78;1690773;84;28093;-87
2022/06/28 10:44:19;;;;;;;4.15;3.15;;;;;;;22.92;100.00;98604.56;1690806;83;28075;-87
2022/06/28 10:46:51;;;;;;;5.00;3.55;;;;;;;22.99;100.00;98603.84;1702010;84;28086;-87
2022/06/28 10:49:23;;;;;;;4.42;3.58;;;;;;;22.96;100.00;98604.22;1639725;87;28064;-90
2022/06/28 10:52:13;;;;;;;4.30;3.50;;;;;;;22.93;100.00;98601.39;1667645;84;28064;-87
2022/06/28 10:54:44;;;;;;;4.17;3.02;;;;;;;22.92;100.00;98598.39;1665430;85;28092;-86
2022/06/28 10:57:40;;;;;;;3.50;3.20;;;;;;;22.90;100.00;98591.92;1698563;84;28192;-86
2022/06/28 11:00:22;;;;;;;4.17;3.50;;;;;;;22.92;100.00;98597.06;1689834;84;28076;-87
2022/06/28 11:02:56;;;;;;;5.15;3.20;;;;;;;22.96;100.00;98592.21;1690504;84;28073;-86
2022/06/28 11:05:25;;;;;;;3.70;3.33;;;;;;;23.00;100.00;98588.16;1689852;83;28106;-86
2022/06/28 11:08:00;;;;;;;3.83;3.50;;;;;;;23.05;100.00;98593.27;1689318;83;28011;-86
2022/06/28 11:10:27;;;;;;;5.50;3.37;;;;;;;23.03;100.00;98601.96;1691997;84;28107;-87
2022/06/28 11:12:53;;;;;;;3.52;3.22;;;;;;;22.99;100.00;98601.17;1691924;84;28093;-86
2022/06/28 11:15:39;;;;;;;4.10;3.75;;;;;;;23.01;100.00;98605.34;1692256;84;28090;-86
2022/06/28 11:18:17;;;;;;;4.15;3.75;;;;;;;23.06;100.00;98603.45;1687633;84;28166;-86
2022/06/28 11:20:43;;;;;;;3.98;3.65;;;;;;;23.06;100.00;98597.61;1691015;84;28020;-86
2022/06/28 11:23:21;;;;;;;3.77;3.33;;;;;;;23.06;100.00;98598.11;1692545;84;28063;-87
2022/06/28 11:28:32;;;;;;;3.70;3.40;;;;;;;23.02;100.00;98598.16;1690827;84;28230;-90
2022/06/28 11:30:58;;;;;;;4.45;4.00;;;;;;;23.09;100.00;98600.41;1691014;84;28108;-86
2022/06/28 11:33:31;;;;;;;5.70;3.80;;;;;;;23.13;100.00;98603.86;1691438;84;28063;-86
2022/06/28 11:36:01;;;;;;;4.75;4.28;;;;;;;23.11;100.00;98592.55;1691474;84;28086;-86
2022/06/28 11:38:27;;;;;;;6.67;4.53;;;;;;;23.08;100.00;98594.73;1690913;84;28080;-86
2022/06/28 11:40:55;;;;;;;5.15;4.65;;;;;;;23.06;100.00;98591.44;1692646;84;28121;-86
2022/06/28 11:43:27;;;;;;;4.80;4.40;;;;;;;23.03;100.00;98589.11;1650897;86;28074;-87
2022/06/28 11:45:55;;;;;;;4.97;4.08;;;;;;;23.05;100.00;98583.09;1644651;86;28174;-86
2022/06/28 11:48:34;;;;;;;5.03;4.53;;;;;;;23.03;100.00;98575.27;1632969;87;28055;-86